createdAt,value
2018-08-25T00:01:39.094Z,1.60
2018-08-25T00:06:49.088Z,1.30
2018-08-25T00:11:59.559Z,1.50
2018-08-25T00:17:09.524Z,1.00
2018-08-25T00:22:19.569Z,1.23
2018-08-25T00:27:29.632Z,2.30
2018-08-25T00:32:39.882Z,2.00
2018-08-25T00:37:49.985Z,1.60
2018-08-25T00:43:00.342Z,2.03
2018-08-25T00:48:10.428Z,2.10
2018-08-25T00:53:20.870Z,1.63
2018-08-25T00:58:30.975Z,1.33
2018-08-25T01:03:40.973Z,1.70
2018-08-25T01:08:50.945Z,1.70
2018-08-25T01:14:01.046Z,1.60
2018-08-25T01:19:11.180Z,1.60
2018-08-25T01:24:21.273Z,1.10
2018-08-25T01:29:31.255Z,1.30
2018-08-25T01:34:41.395Z,1.10
2018-08-25T01:39:51.456Z,1.53
2018-08-25T01:45:01.957Z,1.00
2018-08-25T01:50:12.064Z,1.30
2018-08-25T01:55:22.267Z,1.10
2018-08-25T02:00:32.248Z,2.57
2018-08-25T02:05:42.474Z,1.67
2018-08-25T02:10:52.563Z,1.50
2018-08-25T02:16:02.905Z,1.23
2018-08-25T02:21:13.024Z,1.43
2018-08-25T02:26:23.176Z,1.20
2018-08-25T02:31:33.165Z,1.43
2018-08-25T02:36:43.254Z,1.50
2018-08-25T02:41:53.346Z,1.87
2018-08-25T02:47:03.515Z,2.43
2018-08-25T02:52:13.875Z,1.93
2018-08-25T02:57:23.955Z,1.90
2018-08-25T03:02:33.811Z,1.90
2018-08-25T03:07:43.766Z,1.80
2018-08-25T03:12:53.883Z,1.77
2018-08-25T03:18:04.089Z,1.37
2018-08-25T03:23:14.045Z,1.60
2018-08-25T03:28:24.171Z,1.70
2018-08-25T03:33:34.259Z,1.77
2018-08-25T03:38:44.454Z,1.80
2018-08-25T03:43:54.539Z,2.73
2018-08-25T03:49:04.577Z,1.63
2018-08-25T03:54:14.760Z,1.70
2018-08-25T03:59:24.843Z,1.93
2018-08-25T04:04:34.904Z,1.93
2018-08-25T04:09:45.019Z,1.97
2018-08-25T04:14:55.300Z,1.90
2018-08-25T04:20:05.842Z,1.80
2018-08-25T04:25:16.275Z,1.80
2018-08-25T04:30:26.906Z,1.73
2018-08-25T04:35:36.895Z,1.93
2018-08-25T04:40:46.824Z,2.10
2018-08-25T04:45:56.747Z,1.50
2018-08-25T04:51:06.778Z,1.50
2018-08-25T04:56:16.976Z,1.57
2018-08-25T05:01:27.087Z,1.80
2018-08-25T05:06:37.200Z,1.67
2018-08-25T05:11:47.356Z,1.80
2018-08-25T05:16:57.485Z,1.30
2018-08-25T05:22:07.605Z,2.17
2018-08-25T05:27:17.750Z,1.73
2018-08-25T05:32:27.828Z,1.60
2018-08-25T05:37:37.959Z,1.60
2018-08-25T05:42:48.003Z,1.33
2018-08-25T05:47:58.204Z,1.73
2018-08-25T05:53:08.179Z,2.20
2018-08-25T05:58:18.337Z,1.50
2018-08-25T06:03:28.483Z,1.60
2018-08-25T06:08:38.771Z,2.30
2018-08-25T06:13:48.892Z,2.10
2018-08-25T06:18:58.928Z,3.00
2018-08-25T06:24:09.034Z,2.03
2018-08-25T06:29:19.336Z,2.10
2018-08-25T06:34:29.452Z,2.33
2018-08-25T06:39:39.575Z,2.30
2018-08-25T06:44:50.013Z,1.87
2018-08-25T06:50:00.420Z,1.80
2018-08-25T06:55:10.387Z,3.07
2018-08-25T07:00:20.388Z,2.57
2018-08-25T07:05:30.445Z,3.13
2018-08-25T07:10:40.542Z,3.60
2018-08-25T07:15:50.679Z,4.23
2018-08-25T07:21:00.648Z,4.20
2018-08-25T07:26:10.745Z,4.50
2018-08-25T07:31:20.747Z,4.60
2018-08-25T07:36:30.812Z,3.60
2018-08-25T07:41:41.039Z,3.40
2018-08-25T07:46:51.134Z,2.97
2018-08-25T07:52:01.357Z,2.30
2018-08-25T07:57:11.576Z,2.00
2018-08-25T08:02:21.702Z,1.80
2018-08-25T08:07:31.895Z,1.60
2018-08-25T08:12:42.019Z,1.70
2018-08-25T08:17:52.197Z,1.43
2018-08-25T08:23:02.175Z,1.53
2018-08-25T08:28:12.343Z,1.40
2018-08-25T08:33:22.526Z,1.50
2018-08-25T08:38:35.188Z,1.40
2018-08-25T08:43:45.321Z,1.50
2018-08-25T08:48:55.283Z,1.40
2018-08-25T08:54:05.608Z,1.30
2018-08-25T08:59:15.794Z,1.20
2018-08-25T09:04:25.900Z,1.00
2018-08-25T09:09:35.976Z,0.87
2018-08-25T09:14:45.882Z,1.10
2018-08-25T09:19:56.114Z,0.80
2018-08-25T09:25:06.436Z,1.40
2018-08-25T09:30:16.514Z,1.00
2018-08-25T09:35:26.518Z,0.80
2018-08-25T09:40:36.877Z,1.30
2018-08-25T09:45:47.123Z,1.27
2018-08-25T09:50:57.331Z,1.27
2018-08-25T09:56:07.477Z,1.33
2018-08-25T10:01:23.025Z,1.07
2018-08-25T10:06:33.162Z,1.00
2018-08-25T10:11:43.197Z,0.90
2018-08-25T10:16:53.425Z,0.90
2018-08-25T10:22:03.340Z,1.13
2018-08-25T10:27:13.484Z,1.07
2018-08-25T10:32:23.551Z,0.73
2018-08-25T10:37:33.972Z,1.27
2018-08-25T10:42:44.199Z,1.00
2018-08-25T10:47:54.310Z,1.37
2018-08-25T10:53:04.445Z,0.90
2018-08-25T10:58:14.507Z,0.87
2018-08-25T11:03:24.511Z,1.00
2018-08-25T11:08:34.672Z,0.80
2018-08-25T11:13:44.720Z,1.10
2018-08-25T11:18:55.419Z,1.10
2018-08-25T11:24:05.414Z,1.20
2018-08-25T11:29:15.646Z,0.80
2018-08-25T11:34:25.724Z,1.00
2018-08-25T11:39:35.865Z,0.97
2018-08-25T11:44:45.995Z,1.37
2018-08-25T11:49:56.130Z,1.20
2018-08-25T11:55:06.344Z,1.00
2018-08-25T12:00:16.431Z,1.10
2018-08-25T12:05:26.507Z,1.13
2018-08-25T12:10:36.552Z,1.20
2018-08-25T12:15:46.627Z,1.30
2018-08-25T12:20:56.659Z,1.00
2018-08-25T12:26:06.555Z,1.30
2018-08-25T12:31:16.531Z,1.40
2018-08-25T12:36:26.472Z,1.40
2018-08-25T12:41:36.535Z,0.97
2018-08-25T12:46:46.919Z,1.03
2018-08-25T12:51:57.080Z,0.87
2018-08-25T12:57:07.196Z,1.37
2018-08-25T13:02:17.828Z,1.13
2018-08-25T13:07:27.811Z,1.07
2018-08-25T13:12:37.910Z,1.20
2018-08-25T13:17:48.084Z,1.20
2018-08-25T13:22:58.371Z,1.20
2018-08-25T13:28:08.657Z,1.10
2018-08-25T13:33:19.238Z,1.27
2018-08-25T13:38:29.336Z,1.17
2018-08-25T13:43:39.417Z,1.43
2018-08-25T13:48:49.774Z,1.20
2018-08-25T13:53:59.961Z,1.00
2018-08-25T13:59:10.179Z,0.70
2018-08-25T14:04:20.336Z,0.80
2018-08-25T14:09:30.479Z,0.60
2018-08-25T14:14:40.368Z,0.80
2018-08-25T14:19:50.366Z,0.50
2018-08-25T14:25:00.566Z,0.80
2018-08-25T14:30:10.680Z,0.50
2018-08-25T14:35:20.655Z,0.83
2018-08-25T14:40:30.748Z,0.70
2018-08-25T14:45:40.884Z,0.87
2018-08-25T14:50:51.104Z,0.97
2018-08-25T14:56:01.316Z,0.80
2018-08-25T15:01:11.399Z,1.10
2018-08-25T15:06:21.499Z,0.90
2018-08-25T15:11:31.678Z,0.90
2018-08-25T15:16:41.801Z,0.73
2018-08-25T15:21:51.930Z,0.90
2018-08-25T15:27:01.944Z,1.10
2018-08-25T15:32:12.079Z,0.90
2018-08-25T15:37:22.191Z,0.70
2018-08-25T15:42:32.197Z,0.83
2018-08-25T15:47:42.492Z,0.70
2018-08-25T15:52:52.784Z,0.70
2018-08-25T15:58:02.985Z,0.80
2018-08-25T16:03:12.969Z,0.90
2018-08-25T16:08:23.037Z,1.00
2018-08-25T16:13:33.084Z,0.77
2018-08-25T16:18:43.272Z,0.90
2018-08-25T16:25:17.823Z,0.80
2018-08-25T16:30:27.940Z,0.80
2018-08-25T16:35:38.031Z,0.60
2018-08-25T16:40:48.503Z,0.63
2018-08-25T16:45:58.627Z,0.90
2018-08-25T16:51:08.809Z,0.70
2018-08-25T16:56:19.072Z,0.80
2018-08-25T17:01:29.169Z,0.80
2018-08-25T17:06:39.254Z,1.07
2018-08-25T17:11:50.099Z,1.20
2018-08-25T17:17:00.331Z,1.03
2018-08-25T17:22:10.507Z,1.40
2018-08-25T17:27:20.648Z,1.03
2018-08-25T17:32:30.676Z,1.13
2018-08-25T17:37:40.844Z,1.45
2018-08-25T17:42:51.007Z,1.30
2018-08-25T17:48:01.053Z,1.47
2018-08-25T17:53:10.996Z,1.20
2018-08-25T17:58:21.167Z,0.80
2018-08-25T18:03:31.256Z,1.20
2018-08-25T18:08:41.295Z,1.10
2018-08-25T18:13:51.279Z,0.80
2018-08-25T18:19:01.395Z,1.00
2018-08-25T18:24:11.531Z,1.13
2018-08-25T18:29:21.554Z,1.60
2018-08-25T18:34:31.664Z,1.60
2018-08-25T18:39:41.795Z,1.77
2018-08-25T18:44:52.033Z,1.27
2018-08-25T18:50:02.862Z,1.30
2018-08-25T18:55:13.248Z,1.00
2018-08-25T19:00:23.383Z,1.40
2018-08-25T19:05:33.539Z,1.30
2018-08-25T19:10:43.559Z,1.53
2018-08-25T19:15:53.559Z,1.40
2018-08-25T19:21:03.751Z,1.20
2018-08-25T19:26:13.936Z,1.47
2018-08-25T19:31:24.006Z,1.77
2018-08-25T19:36:34.104Z,1.63
2018-08-25T19:41:44.070Z,1.10
2018-08-25T19:46:54.323Z,1.30
2018-08-25T19:52:04.632Z,1.10
2018-08-25T19:57:14.636Z,1.50
2018-08-25T20:02:24.727Z,0.83
2018-08-25T20:07:34.868Z,1.10
2018-08-25T20:12:44.988Z,1.07
2018-08-25T20:17:55.225Z,1.40
2018-08-25T20:23:05.428Z,2.05
2018-08-25T20:28:15.543Z,1.90
2018-08-25T20:33:25.636Z,2.13
2018-08-25T20:38:35.699Z,1.40
2018-08-25T20:43:45.660Z,1.43
2018-08-25T20:48:55.742Z,1.50
2018-08-25T20:54:05.851Z,1.50
2018-08-25T20:59:16.461Z,1.27
2018-08-25T21:04:26.546Z,1.30
2018-08-25T21:09:37.180Z,1.20
2018-08-25T21:14:47.770Z,1.23
2018-08-25T21:19:58.535Z,1.10
2018-08-25T21:25:10.226Z,1.00
2018-08-25T21:30:20.523Z,1.30
2018-08-25T21:35:30.827Z,1.00
2018-08-25T21:40:40.879Z,1.10
2018-08-25T21:45:51.031Z,1.30
2018-08-25T21:51:01.024Z,1.07
2018-08-25T21:56:11.094Z,1.10
2018-08-25T22:01:21.100Z,1.40
2018-08-25T22:06:31.170Z,1.17
2018-08-25T22:11:41.274Z,1.00
2018-08-25T22:16:51.407Z,1.00
2018-08-25T22:22:01.532Z,1.43
2018-08-25T22:27:11.562Z,1.17
2018-08-25T22:32:21.516Z,1.20
2018-08-25T22:37:31.659Z,1.30
2018-08-25T22:42:41.695Z,1.23
2018-08-25T22:47:52.856Z,1.00
2018-08-25T22:53:02.770Z,0.90
2018-08-25T22:58:12.776Z,1.10
2018-08-25T23:03:22.840Z,1.07
2018-08-25T23:08:33.087Z,1.27
2018-08-25T23:13:43.186Z,1.10
2018-08-25T23:18:53.335Z,1.43
2018-08-25T23:24:03.329Z,1.40
2018-08-25T23:29:13.443Z,1.63
2018-08-25T23:34:23.519Z,2.00
2018-08-25T23:39:33.629Z,2.00
2018-08-25T23:44:43.659Z,1.80
2018-08-25T23:49:53.742Z,1.80
2018-08-25T23:55:05.536Z,2.23
